sensor_id;sensor_type;location;lat;lon;timestamp;pressure;altitude;pressure_sealevel;temperature
40199;BMP280;25906;43.536;26.068;2023-05-21T00:01:20;98789.59;;;13.66
40199;BMP280;25906;43.536;26.068;2023-05-21T00:04:04;98789.50;;;13.97
40199;BMP280;25906;43.536;26.068;2023-05-21T00:06:35;98794.34;;;13.89
40199;BMP280;25906;43.536;26.068;2023-05-21T00:09:20;98796.44;;;14.03
40199;BMP280;25906;43.536;26.068;2023-05-21T00:12:07;98799.53;;;13.84
40199;BMP280;25906;43.536;26.068;2023-05-21T00:14:52;98782.41;;;14.03
40199;BMP280;25906;43.536;26.068;2023-05-21T00:17:38;98787.72;;;14.12
40199;BMP280;25906;43.536;26.068;2023-05-21T00:20:23;98782.56;;;14.18
40199;BMP280;25906;43.536;26.068;2023-05-21T00:23:09;98782.56;;;14.18
40199;BMP280;25906;43.536;26.068;2023-05-21T00:25:54;98776.19;;;14.24
40199;BMP280;25906;43.536;26.068;2023-05-21T00:28:40;98775.03;;;14.25
40199;BMP280;25906;43.536;26.068;2023-05-21T00:31:25;98765.25;;;14.22
40199;BMP280;25906;43.536;26.068;2023-05-21T00:34:12;98777.84;;;14.22
40199;BMP280;25906;43.536;26.068;2023-05-21T00:36:57;98772.22;;;14.11
40199;BMP280;25906;43.536;26.068;2023-05-21T00:39:43;98773.22;;;13.95
40199;BMP280;25906;43.536;26.068;2023-05-21T00:42:28;98761.41;;;14.05
40199;BMP280;25906;43.536;26.068;2023-05-21T00:45:14;98766.16;;;14.10
40199;BMP280;25906;43.536;26.068;2023-05-21T00:48:00;98757.44;;;14.10
40199;BMP280;25906;43.536;26.068;2023-05-21T00:50:46;98753.44;;;14.05
40199;BMP280;25906;43.536;26.068;2023-05-21T00:53:33;98759.47;;;14.05
40199;BMP280;25906;43.536;26.068;2023-05-21T00:56:20;98755.47;;;13.83
40199;BMP280;25906;43.536;26.068;2023-05-21T00:59:07;98749.28;;;13.95
40199;BMP280;25906;43.536;26.068;2023-05-21T01:01:52;98752.53;;;14.08
40199;BMP280;25906;43.536;26.068;2023-05-21T01:04:40;98755.22;;;14.08
40199;BMP280;25906;43.536;26.068;2023-05-21T01:07:25;98741.72;;;14.12
40199;BMP280;25906;43.536;26.068;2023-05-21T01:10:11;98745.44;;;14.14
40199;BMP280;25906;43.536;26.068;2023-05-21T01:12:57;98747.63;;;13.88
40199;BMP280;25906;43.536;26.068;2023-05-21T01:15:43;98746.63;;;13.86
40199;BMP280;25906;43.536;26.068;2023-05-21T01:18:29;98743.22;;;13.85
40199;BMP280;25906;43.536;26.068;2023-05-21T01:21:20;98742.47;;;13.76
40199;BMP280;25906;43.536;26.068;2023-05-21T01:24:06;98740.25;;;13.83
40199;BMP280;25906;43.536;26.068;2023-05-21T01:26:52;98731.69;;;13.79
40199;BMP280;25906;43.536;26.068;2023-05-21T01:29:37;98728.28;;;13.88
40199;BMP280;25906;43.536;26.068;2023-05-21T01:32:37;98721.78;;;13.80
40199;BMP280;25906;43.536;26.068;2023-05-21T01:35:29;98711.16;;;13.80
40199;BMP280;25906;43.536;26.068;2023-05-21T01:41:19;98702.81;;;13.41
40199;BMP280;25906;43.536;26.068;2023-05-21T01:44:05;98699.72;;;13.43
40199;BMP280;25906;43.536;26.068;2023-05-21T01:46:53;98703.38;;;13.27
40199;BMP280;25906;43.536;26.068;2023-05-21T01:49:39;98690.69;;;13.40
40199;BMP280;25906;43.536;26.068;2023-05-21T01:52:25;98697.16;;;13.21
40199;BMP280;25906;43.536;26.068;2023-05-21T01:55:10;98694.31;;;13.07
40199;BMP280;25906;43.536;26.068;2023-05-21T01:57:58;98695.06;;;13.16
40199;BMP280;25906;43.536;26.068;2023-05-21T02:00:43;98703.09;;;13.34
40199;BMP280;25906;43.536;26.068;2023-05-21T02:03:31;98700.44;;;13.43
40199;BMP280;25906;43.536;26.068;2023-05-21T02:06:17;98701.56;;;13.15
40199;BMP280;25906;43.536;26.068;2023-05-21T02:09:02;98702.75;;;13.14
40199;BMP280;25906;43.536;26.068;2023-05-21T02:11:48;98703.53;;;12.93
40199;BMP280;25906;43.536;26.068;2023-05-21T02:14:34;98701.78;;;12.90
40199;BMP280;25906;43.536;26.068;2023-05-21T02:17:19;98717.97;;;12.83
40199;BMP280;25906;43.536;26.068;2023-05-21T02:20:06;98705.13;;;12.81
40199;BMP280;25906;43.536;26.068;2023-05-21T02:22:57;98707.19;;;12.86
40199;BMP280;25906;43.536;26.068;2023-05-21T02:25:43;98703.22;;;12.91
40199;BMP280;25906;43.536;26.068;2023-05-21T02:28:28;98713.16;;;12.90
40199;BMP280;25906;43.536;26.068;2023-05-21T02:31:14;98705.91;;;12.91
40199;BMP280;25906;43.536;26.068;2023-05-21T02:33:59;98713.41;;;12.92
40199;BMP280;25906;43.536;26.068;2023-05-21T02:36:46;98720.53;;;12.95
40199;BMP280;25906;43.536;26.068;2023-05-21T02:39:36;98712.91;;;12.76
40199;BMP280;25906;43.536;26.068;2023-05-21T02:42:22;98718.50;;;12.78
40199;BMP280;25906;43.536;26.068;2023-05-21T02:45:09;98715.81;;;12.25
40199;BMP280;25906;43.536;26.068;2023-05-21T02:47:55;98716.34;;;11.98
40199;BMP280;25906;43.536;26.068;2023-05-21T02:50:40;98707.94;;;11.53
40199;BMP280;25906;43.536;26.068;2023-05-21T02:53:25;98715.91;;;11.15
40199;BMP280;25906;43.536;26.068;2023-05-21T02:56:11;98712.81;;;11.17
40199;BMP280;25906;43.536;26.068;2023-05-21T02:58:56;98723.91;;;11.75
40199;BMP280;25906;43.536;26.068;2023-05-21T03:01:42;98729.03;;;12.03
40199;BMP280;25906;43.536;26.068;2023-05-21T03:04:29;98722.00;;;12.22
40199;BMP280;25906;43.536;26.068;2023-05-21T03:07:15;98722.53;;;12.39
40199;BMP280;25906;43.536;26.068;2023-05-21T03:10:03;98731.38;;;12.58
40199;BMP280;25906;43.536;26.068;2023-05-21T03:12:49;98717.16;;;12.73
40199;BMP280;25906;43.536;26.068;2023-05-21T03:15:34;98726.31;;;12.72
40199;BMP280;25906;43.536;26.068;2023-05-21T03:18:21;98725.84;;;12.95
40199;BMP280;25906;43.536;26.068;2023-05-21T03:21:06;98732.16;;;12.89
40199;BMP280;25906;43.536;26.068;2023-05-21T03:23:51;98735.78;;;13.04
40199;BMP280;25906;43.536;26.068;2023-05-21T03:26:37;98737.81;;;13.40
40199;BMP280;25906;43.536;26.068;2023-05-21T03:29:22;98727.09;;;13.80
40199;BMP280;25906;43.536;26.068;2023-05-21T03:32:07;98727.84;;;14.08
40199;BMP280;25906;43.536;26.068;2023-05-21T03:34:53;98728.97;;;14.43
40199;BMP280;25906;43.536;26.068;2023-05-21T03:37:38;98740.94;;;14.66
40199;BMP280;25906;43.536;26.068;2023-05-21T03:40:23;98737.06;;;14.67
40199;BMP280;25906;43.536;26.068;2023-05-21T03:43:09;98745.41;;;14.50
40199;BMP280;25906;43.536;26.068;2023-05-21T03:45:54;98750.19;;;14.88
40199;BMP280;25906;43.536;26.068;2023-05-21T03:48:40;98749.50;;;14.79
40199;BMP280;25906;43.536;26.068;2023-05-21T03:51:25;98742.00;;;15.01
40199;BMP280;25906;43.536;26.068;2023-05-21T03:54:11;98742.59;;;15.05
40199;BMP280;25906;43.536;26.068;2023-05-21T03:56:57;98744.34;;;15.08
40199;BMP280;25906;43.536;26.068;2023-05-21T03:59:42;98748.34;;;14.71
40199;BMP280;25906;43.536;26.068;2023-05-21T04:02:27;98749.72;;;14.99
40199;BMP280;25906;43.536;26.068;2023-05-21T04:05:13;98750.63;;;14.96
40199;BMP280;25906;43.536;26.068;2023-05-21T04:07:58;98753.66;;;14.71
40199;BMP280;25906;43.536;26.068;2023-05-21T04:10:44;98748.09;;;14.32
40199;BMP280;25906;43.536;26.068;2023-05-21T04:13:29;98737.47;;;14.23
40199;BMP280;25906;43.536;26.068;2023-05-21T04:16:15;98747.00;;;13.48
40199;BMP280;25906;43.536;26.068;2023-05-21T04:19:03;98739.94;;;13.54
40199;BMP280;25906;43.536;26.068;2023-05-21T04:21:48;98745.09;;;13.58
40199;BMP280;25906;43.536;26.068;2023-05-21T04:24:34;98736.00;;;13.86
40199;BMP280;25906;43.536;26.068;2023-05-21T04:27:22;98744.38;;;14.12
40199;BMP280;25906;43.536;26.068;2023-05-21T04:30:10;98741.91;;;14.08
40199;BMP280;25906;43.536;26.068;2023-05-21T04:32:55;98750.16;;;14.46
40199;BMP280;25906;43.536;26.068;2023-05-21T04:35:43;98752.97;;;15.03
40199;BMP280;25906;43.536;26.068;2023-05-21T04:38:28;98748.44;;;15.18
40199;BMP280;25906;43.536;26.068;2023-05-21T04:41:14;98747.66;;;15.50
40199;BMP280;25906;43.536;26.068;2023-05-21T04:43:59;98741.44;;;15.77
40199;BMP280;25906;43.536;26.068;2023-05-21T04:46:45;98738.69;;;15.63
40199;BMP280;25906;43.536;26.068;2023-05-21T04:49:30;98738.69;;;15.63
40199;BMP280;25906;43.536;26.068;2023-05-21T04:52:16;98746.88;;;15.83
40199;BMP280;25906;43.536;26.068;2023-05-21T04:55:02;98733.47;;;15.92
40199;BMP280;25906;43.536;26.068;2023-05-21T04:57:48;98726.69;;;16.35
40199;BMP280;25906;43.536;26.068;2023-05-21T05:00:33;98745.56;;;16.60
40199;BMP280;25906;43.536;26.068;2023-05-21T05:03:18;98730.72;;;16.45
40199;BMP280;25906;43.536;26.068;2023-05-21T05:06:04;98735.38;;;17.14
40199;BMP280;25906;43.536;26.068;2023-05-21T05:08:50;98740.66;;;17.29
40199;BMP280;25906;43.536;26.068;2023-05-21T05:11:35;98734.25;;;17.20
40199;BMP280;25906;43.536;26.068;2023-05-21T05:14:21;98728.03;;;16.59
40199;BMP280;25906;43.536;26.068;2023-05-21T05:17:06;98738.63;;;16.68
40199;BMP280;25906;43.536;26.068;2023-05-21T05:19:54;98735.78;;;15.99
40199;BMP280;25906;43.536;26.068;2023-05-21T05:22:39;98731.94;;;16.93
40199;BMP280;25906;43.536;26.068;2023-05-21T05:25:25;98737.53;;;17.30
40199;BMP280;25906;43.536;26.068;2023-05-21T05:28:10;98732.59;;;17.43
40199;BMP280;25906;43.536;26.068;2023-05-21T05:30:56;98739.69;;;17.92
40199;BMP280;25906;43.536;26.068;2023-05-21T05:33:41;98736.69;;;17.85
40199;BMP280;25906;43.536;26.068;2023-05-21T05:36:26;98736.94;;;17.81
40199;BMP280;25906;43.536;26.068;2023-05-21T05:39:12;98742.91;;;17.96
40199;BMP280;25906;43.536;26.068;2023-05-21T05:41:57;98740.63;;;18.41
40199;BMP280;25906;43.536;26.068;2023-05-21T05:44:43;98736.00;;;18.41
40199;BMP280;25906;43.536;26.068;2023-05-21T05:47:28;98730.34;;;18.33
40199;BMP280;25906;43.536;26.068;2023-05-21T05:50:13;98732.84;;;17.86
40199;BMP280;25906;43.536;26.068;2023-05-21T05:52:59;98740.59;;;18.09
40199;BMP280;25906;43.536;26.068;2023-05-21T05:55:44;98738.91;;;18.74
40199;BMP280;25906;43.536;26.068;2023-05-21T05:58:30;98738.56;;;19.04
40199;BMP280;25906;43.536;26.068;2023-05-21T06:01:15;98746.59;;;18.98
40199;BMP280;25906;43.536;26.068;2023-05-21T06:04:01;98736.03;;;19.31
40199;BMP280;25906;43.536;26.068;2023-05-21T06:06:47;98740.31;;;19.07
40199;BMP280;25906;43.536;26.068;2023-05-21T06:09:32;98736.38;;;19.61
40199;BMP280;25906;43.536;26.068;2023-05-21T06:12:17;98728.56;;;19.63
40199;BMP280;25906;43.536;26.068;2023-05-21T06:15:04;98736.91;;;19.82
40199;BMP280;25906;43.536;26.068;2023-05-21T06:17:50;98735.81;;;19.35
40199;BMP280;25906;43.536;26.068;2023-05-21T06:20:35;98734.97;;;19.82
40199;BMP280;25906;43.536;26.068;2023-05-21T06:23:21;98731.06;;;19.89
40199;BMP280;25906;43.536;26.068;2023-05-21T06:26:06;98730.78;;;19.70
40199;BMP280;25906;43.536;26.068;2023-05-21T06:28:51;98725.44;;;19.81
40199;BMP280;25906;43.536;26.068;2023-05-21T06:31:37;98722.25;;;19.99
40199;BMP280;25906;43.536;26.068;2023-05-21T06:34:22;98708.09;;;19.71
40199;BMP280;25906;43.536;26.068;2023-05-21T06:37:08;98712.00;;;20.03
40199;BMP280;25906;43.536;26.068;2023-05-21T06:39:53;98706.66;;;19.81
40199;BMP280;25906;43.536;26.068;2023-05-21T06:42:38;98704.91;;;20.17
40199;BMP280;25906;43.536;26.068;2023-05-21T06:45:24;98704.69;;;19.82
40199;BMP280;25906;43.536;26.068;2023-05-21T06:48:09;98696.84;;;19.67
40199;BMP280;25906;43.536;26.068;2023-05-21T06:50:56;98701.97;;;19.65
40199;BMP280;25906;43.536;26.068;2023-05-21T06:53:41;98705.66;;;20.06
40199;BMP280;25906;43.536;26.068;2023-05-21T06:56:27;98702.97;;;20.06
40199;BMP280;25906;43.536;26.068;2023-05-21T06:59:12;98709.03;;;20.57
40199;BMP280;25906;43.536;26.068;2023-05-21T07:01:58;98714.69;;;20.26
40199;BMP280;25906;43.536;26.068;2023-05-21T07:04:43;98712.59;;;20.87
40199;BMP280;25906;43.536;26.068;2023-05-21T07:07:29;98703.13;;;20.75
40199;BMP280;25906;43.536;26.068;2023-05-21T07:10:14;98705.06;;;20.80
40199;BMP280;25906;43.536;26.068;2023-05-21T07:13:00;98704.16;;;20.61
40199;BMP280;25906;43.536;26.068;2023-05-21T07:15:45;98703.50;;;21.07
40199;BMP280;25906;43.536;26.068;2023-05-21T07:18:31;98693.13;;;20.64
40199;BMP280;25906;43.536;26.068;2023-05-21T07:21:16;98704.56;;;20.71
40199;BMP280;25906;43.536;26.068;2023-05-21T07:24:02;98697.78;;;20.70
40199;BMP280;25906;43.536;26.068;2023-05-21T07:26:47;98698.97;;;20.74
40199;BMP280;25906;43.536;26.068;2023-05-21T07:29:33;98686.47;;;21.34
40199;BMP280;25906;43.536;26.068;2023-05-21T07:32:18;98688.53;;;21.87
40199;BMP280;25906;43.536;26.068;2023-05-21T07:35:04;98693.16;;;21.63
40199;BMP280;25906;43.536;26.068;2023-05-21T07:37:49;98690.00;;;21.12
40199;BMP280;25906;43.536;26.068;2023-05-21T07:40:35;98690.38;;;21.39
40199;BMP280;25906;43.536;26.068;2023-05-21T07:43:20;98689.75;;;21.51
40199;BMP280;25906;43.536;26.068;2023-05-21T07:46:07;98688.06;;;21.83
40199;BMP280;25906;43.536;26.068;2023-05-21T07:48:52;98682.78;;;21.72
40199;BMP280;25906;43.536;26.068;2023-05-21T07:51:38;98687.25;;;21.64
40199;BMP280;25906;43.536;26.068;2023-05-21T07:54:23;98685.34;;;21.89
40199;BMP280;25906;43.536;26.068;2023-05-21T07:57:09;98687.34;;;21.48
40199;BMP280;25906;43.536;26.068;2023-05-21T07:59:54;98686.97;;;21.68
40199;BMP280;25906;43.536;26.068;2023-05-21T08:02:40;98684.84;;;22.15
40199;BMP280;25906;43.536;26.068;2023-05-21T08:05:26;98681.44;;;21.84
40199;BMP280;25906;43.536;26.068;2023-05-21T08:08:11;98690.38;;;22.04
40199;BMP280;25906;43.536;26.068;2023-05-21T08:10:57;98680.78;;;22.32
40199;BMP280;25906;43.536;26.068;2023-05-21T08:13:42;98684.22;;;22.33
40199;BMP280;25906;43.536;26.068;2023-05-21T08:16:28;98675.88;;;22.31
40199;BMP280;25906;43.536;26.068;2023-05-21T08:19:13;98691.72;;;22.16
40199;BMP280;25906;43.536;26.068;2023-05-21T08:21:59;98682.00;;;22.56
40199;BMP280;25906;43.536;26.068;2023-05-21T08:24:44;98686.03;;;22.68
40199;BMP280;25906;43.536;26.068;2023-05-21T08:27:29;98691.56;;;22.32
40199;BMP280;25906;43.536;26.068;2023-05-21T08:30:15;98691.28;;;22.12
40199;BMP280;25906;43.536;26.068;2023-05-21T08:33:00;98687.44;;;22.50
40199;BMP280;25906;43.536;26.068;2023-05-21T08:35:46;98685.59;;;22.15
40199;BMP280;25906;43.536;26.068;2023-05-21T08:38:31;98692.91;;;22.20
40199;BMP280;25906;43.536;26.068;2023-05-21T08:41:19;98685.38;;;22.13
40199;BMP280;25906;43.536;26.068;2023-05-21T08:44:11;98688.13;;;22.32
40199;BMP280;25906;43.536;26.068;2023-05-21T08:46:57;98696.31;;;22.88
40199;BMP280;25906;43.536;26.068;2023-05-21T08:49:43;98687.75;;;23.08
40199;BMP280;25906;43.536;26.068;2023-05-21T08:52:30;98684.78;;;23.56
40199;BMP280;25906;43.536;26.068;2023-05-21T08:55:16;98685.88;;;23.66
40199;BMP280;25906;43.536;26.068;2023-05-21T08:58:03;98687.56;;;23.00
40199;BMP280;25906;43.536;26.068;2023-05-21T09:00:48;98698.06;;;22.67
40199;BMP280;25906;43.536;26.068;2023-05-21T09:03:34;98701.31;;;23.34
40199;BMP280;25906;43.536;26.068;2023-05-21T09:06:24;98685.97;;;22.92
40199;BMP280;25906;43.536;26.068;2023-05-21T09:09:16;98697.25;;;23.46
40199;BMP280;25906;43.536;26.068;2023-05-21T09:12:06;98700.38;;;23.50
40199;BMP280;25906;43.536;26.068;2023-05-21T09:14:52;98701.72;;;23.25
40199;BMP280;25906;43.536;26.068;2023-05-21T09:17:37;98697.09;;;24.02
40199;BMP280;25906;43.536;26.068;2023-05-21T09:20:24;98699.97;;;24.17
40199;BMP280;25906;43.536;26.068;2023-05-21T09:23:10;98704.22;;;23.87
40199;BMP280;25906;43.536;26.068;2023-05-21T09:26:00;98702.78;;;24.25
40199;BMP280;25906;43.536;26.068;2023-05-21T09:28:59;98698.00;;;23.92
40199;BMP280;25906;43.536;26.068;2023-05-21T09:31:44;98694.88;;;24.40
40199;BMP280;25906;43.536;26.068;2023-05-21T09:34:30;98698.91;;;24.60
40199;BMP280;25906;43.536;26.068;2023-05-21T09:37:15;98691.44;;;23.87
40199;BMP280;25906;43.536;26.068;2023-05-21T09:40:01;98690.59;;;25.04
40199;BMP280;25906;43.536;26.068;2023-05-21T09:42:48;98687.81;;;24.84
40199;BMP280;25906;43.536;26.068;2023-05-21T09:45:33;98695.19;;;24.36
40199;BMP280;25906;43.536;26.068;2023-05-21T09:48:41;98684.47;;;24.57
40199;BMP280;25906;43.536;26.068;2023-05-21T09:51:27;98680.34;;;24.90
40199;BMP280;25906;43.536;26.068;2023-05-21T09:54:13;98670.91;;;25.25
40199;BMP280;25906;43.536;26.068;2023-05-21T09:56:59;98686.47;;;25.45
40199;BMP280;25906;43.536;26.068;2023-05-21T09:59:49;98686.09;;;24.73
40199;BMP280;25906;43.536;26.068;2023-05-21T10:02:36;98679.34;;;24.67
40199;BMP280;25906;43.536;26.068;2023-05-21T10:05:27;98681.41;;;24.74
40199;BMP280;25906;43.536;26.068;2023-05-21T10:08:14;98670.97;;;25.73
40199;BMP280;25906;43.536;26.068;2023-05-21T10:11:02;98678.72;;;25.69
40199;BMP280;25906;43.536;26.068;2023-05-21T10:14:01;98679.19;;;25.89
40199;BMP280;25906;43.536;26.068;2023-05-21T10:16:48;98683.31;;;26.46
40199;BMP280;25906;43.536;26.068;2023-05-21T10:19:35;98682.44;;;25.87
40199;BMP280;25906;43.536;26.068;2023-05-21T10:22:23;98672.56;;;25.97
40199;BMP280;25906;43.536;26.068;2023-05-21T10:25:09;98669.22;;;24.80
40199;BMP280;25906;43.536;26.068;2023-05-21T10:27:55;98682.63;;;25.20
40199;BMP280;25906;43.536;26.068;2023-05-21T10:30:41;98676.53;;;25.68
40199;BMP280;25906;43.536;26.068;2023-05-21T10:33:28;98679.03;;;25.66
40199;BMP280;25906;43.536;26.068;2023-05-21T10:36:15;98669.69;;;25.46
40199;BMP280;25906;43.536;26.068;2023-05-21T10:39:03;98663.84;;;26.27
40199;BMP280;25906;43.536;26.068;2023-05-21T10:41:55;98669.38;;;25.78
40199;BMP280;25906;43.536;26.068;2023-05-21T10:48:32;98673.97;;;25.91
40199;BMP280;25906;43.536;26.068;2023-05-21T10:51:27;98658.97;;;25.41
40199;BMP280;25906;43.536;26.068;2023-05-21T10:58:12;98661.63;;;25.82
40199;BMP280;25906;43.536;26.068;2023-05-21T11:01:01;98661.47;;;25.18
40199;BMP280;25906;43.536;26.068;2023-05-21T11:03:46;98664.03;;;25.03
40199;BMP280;25906;43.536;26.068;2023-05-21T11:06:35;98666.41;;;24.86
40199;BMP280;25906;43.536;26.068;2023-05-21T11:09:22;98671.22;;;25.13
40199;BMP280;25906;43.536;26.068;2023-05-21T11:12:07;98666.69;;;25.57
40199;BMP280;25906;43.536;26.068;2023-05-21T11:14:56;98660.38;;;25.83
40199;BMP280;25906;43.536;26.068;2023-05-21T11:17:42;98667.03;;;25.54
40199;BMP280;25906;43.536;26.068;2023-05-21T11:20:33;98664.84;;;25.52
40199;BMP280;25906;43.536;26.068;2023-05-21T11:23:19;98660.50;;;25.29
40199;BMP280;25906;43.536;26.068;2023-05-21T11:26:05;98648.75;;;25.54
40199;BMP280;25906;43.536;26.068;2023-05-21T11:31:58;98645.13;;;26.08
40199;BMP280;25906;43.536;26.068;2023-05-21T11:34:47;98642.31;;;25.16
40199;BMP280;25906;43.536;26.068;2023-05-21T11:37:33;98644.31;;;25.64
40199;BMP280;25906;43.536;26.068;2023-05-21T11:40:22;98647.56;;;25.91
40199;BMP280;25906;43.536;26.068;2023-05-21T11:43:09;98645.41;;;25.90
40199;BMP280;25906;43.536;26.068;2023-05-21T11:45:55;98629.06;;;26.10
40199;BMP280;25906;43.536;26.068;2023-05-21T11:48:41;98634.41;;;25.67
40199;BMP280;25906;43.536;26.068;2023-05-21T11:51:27;98637.97;;;25.34
40199;BMP280;25906;43.536;26.068;2023-05-21T11:54:13;98635.31;;;25.21
40199;BMP280;25906;43.536;26.068;2023-05-21T11:56:59;98625.53;;;25.38
40199;BMP280;25906;43.536;26.068;2023-05-21T11:59:48;98623.28;;;25.29
40199;BMP280;25906;43.536;26.068;2023-05-21T12:02:35;98630.28;;;25.25
40199;BMP280;25906;43.536;26.068;2023-05-21T12:05:21;98636.03;;;25.42
40199;BMP280;25906;43.536;26.068;2023-05-21T12:08:06;98617.47;;;25.04
40199;BMP280;25906;43.536;26.068;2023-05-21T12:10:58;98616.34;;;25.00
40199;BMP280;25906;43.536;26.068;2023-05-21T12:13:43;98613.94;;;24.76
40199;BMP280;25906;43.536;26.068;2023-05-21T12:16:29;98608.44;;;24.68
40199;BMP280;25906;43.536;26.068;2023-05-21T12:19:16;98608.69;;;25.11
40199;BMP280;25906;43.536;26.068;2023-05-21T12:22:03;98599.88;;;24.77
40199;BMP280;25906;43.536;26.068;2023-05-21T12:24:49;98595.03;;;24.96
40199;BMP280;25906;43.536;26.068;2023-05-21T12:27:35;98593.81;;;25.26
40199;BMP280;25906;43.536;26.068;2023-05-21T12:30:21;98586.75;;;25.51
40199;BMP280;25906;43.536;26.068;2023-05-21T12:33:06;98586.72;;;25.43
40199;BMP280;25906;43.536;26.068;2023-05-21T12:35:51;98590.69;;;25.42
40199;BMP280;25906;43.536;26.068;2023-05-21T12:38:37;98584.31;;;25.11
40199;BMP280;25906;43.536;26.068;2023-05-21T12:41:22;98593.63;;;24.69
40199;BMP280;25906;43.536;26.068;2023-05-21T12:44:08;98583.22;;;24.39
40199;BMP280;25906;43.536;26.068;2023-05-21T12:46:55;98582.09;;;24.35
40199;BMP280;25906;43.536;26.068;2023-05-21T12:49:42;98584.81;;;24.22
40199;BMP280;25906;43.536;26.068;2023-05-21T12:52:34;98574.84;;;24.17
40199;BMP280;25906;43.536;26.068;2023-05-21T12:55:21;98577.78;;;24.06
40199;BMP280;25906;43.536;26.068;2023-05-21T12:58:07;98582.03;;;24.14
40199;BMP280;25906;43.536;26.068;2023-05-21T13:00:53;98586.50;;;24.25
40199;BMP280;25906;43.536;26.068;2023-05-21T13:03:40;98575.13;;;24.13
40199;BMP280;25906;43.536;26.068;2023-05-21T13:06:26;98584.13;;;24.08
40199;BMP280;25906;43.536;26.068;2023-05-21T13:09:11;98584.00;;;24.14
40199;BMP280;25906;43.536;26.068;2023-05-21T13:11:56;98582.16;;;24.09
40199;BMP280;25906;43.536;26.068;2023-05-21T13:14:42;98574.19;;;24.37
40199;BMP280;25906;43.536;26.068;2023-05-21T13:17:28;98573.06;;;24.87
40199;BMP280;25906;43.536;26.068;2023-05-21T13:20:18;98562.34;;;25.23
40199;BMP280;25906;43.536;26.068;2023-05-21T13:23:05;98564.50;;;25.17
40199;BMP280;25906;43.536;26.068;2023-05-21T13:25:50;98565.16;;;25.30
40199;BMP280;25906;43.536;26.068;2023-05-21T13:28:36;98563.53;;;25.35
40199;BMP280;25906;43.536;26.068;2023-05-21T13:31:21;98574.06;;;24.97
40199;BMP280;25906;43.536;26.068;2023-05-21T13:34:07;98572.00;;;25.10
40199;BMP280;25906;43.536;26.068;2023-05-21T13:36:52;98573.13;;;24.74
40199;BMP280;25906;43.536;26.068;2023-05-21T13:39:37;98575.22;;;24.47
40199;BMP280;25906;43.536;26.068;2023-05-21T13:42:23;98567.44;;;24.30
40199;BMP280;25906;43.536;26.068;2023-05-21T13:45:10;98571.81;;;24.33
40199;BMP280;25906;43.536;26.068;2023-05-21T13:47:56;98573.19;;;24.27
40199;BMP280;25906;43.536;26.068;2023-05-21T13:50:42;98558.44;;;24.02
40199;BMP280;25906;43.536;26.068;2023-05-21T13:53:27;98569.78;;;23.87
40199;BMP280;25906;43.536;26.068;2023-05-21T13:56:12;98567.69;;;23.93
40199;BMP280;25906;43.536;26.068;2023-05-21T13:58:58;98561.13;;;23.89
40199;BMP280;25906;43.536;26.068;2023-05-21T14:01:44;98562.69;;;24.10
40199;BMP280;25906;43.536;26.068;2023-05-21T14:04:30;98557.28;;;23.97
40199;BMP280;25906;43.536;26.068;2023-05-21T14:07:15;98548.91;;;23.88
40199;BMP280;25906;43.536;26.068;2023-05-21T14:10:01;98554.69;;;24.05
40199;BMP280;25906;43.536;26.068;2023-05-21T14:12:46;98553.13;;;23.96
40199;BMP280;25906;43.536;26.068;2023-05-21T14:15:32;98553.66;;;24.08
40199;BMP280;25906;43.536;26.068;2023-05-21T14:18:17;98550.03;;;23.79
40199;BMP280;25906;43.536;26.068;2023-05-21T14:21:03;98540.47;;;23.91
40199;BMP280;25906;43.536;26.068;2023-05-21T14:23:49;98545.09;;;24.04
40199;BMP280;25906;43.536;26.068;2023-05-21T14:26:37;98542.72;;;24.00
40199;BMP280;25906;43.536;26.068;2023-05-21T14:29:24;98546.84;;;24.27
40199;BMP280;25906;43.536;26.068;2023-05-21T14:32:09;98544.38;;;24.16
40199;BMP280;25906;43.536;26.068;2023-05-21T14:34:55;98548.19;;;24.21
40199;BMP280;25906;43.536;26.068;2023-05-21T14:37:40;98534.50;;;24.06
40199;BMP280;25906;43.536;26.068;2023-05-21T14:40:26;98548.28;;;23.95
40199;BMP280;25906;43.536;26.068;2023-05-21T14:43:11;98552.19;;;24.07
40199;BMP280;25906;43.536;26.068;2023-05-21T14:45:56;98549.47;;;24.20
40199;BMP280;25906;43.536;26.068;2023-05-21T14:48:42;98546.56;;;24.05
40199;BMP280;25906;43.536;26.068;2023-05-21T14:51:27;98541.78;;;23.98
40199;BMP280;25906;43.536;26.068;2023-05-21T14:54:13;98529.94;;;24.01
40199;BMP280;25906;43.536;26.068;2023-05-21T14:56:58;98532.41;;;24.12
40199;BMP280;25906;43.536;26.068;2023-05-21T14:59:43;98537.81;;;24.25
40199;BMP280;25906;43.536;26.068;2023-05-21T15:02:29;98534.50;;;24.19
40199;BMP280;25906;43.536;26.068;2023-05-21T15:05:14;98536.28;;;24.03
40199;BMP280;25906;43.536;26.068;2023-05-21T15:08:00;98534.28;;;24.04
40199;BMP280;25906;43.536;26.068;2023-05-21T15:10:45;98534.75;;;23.95
40199;BMP280;25906;43.536;26.068;2023-05-21T15:13:30;98529.97;;;23.88
40199;BMP280;25906;43.536;26.068;2023-05-21T15:16:16;98539.31;;;23.73
40199;BMP280;25906;43.536;26.068;2023-05-21T15:19:02;98534.31;;;23.64
40199;BMP280;25906;43.536;26.068;2023-05-21T15:21:47;98528.91;;;23.51
40199;BMP280;25906;43.536;26.068;2023-05-21T15:24:35;98531.63;;;23.51
40199;BMP280;25906;43.536;26.068;2023-05-21T15:27:21;98524.38;;;23.59
40199;BMP280;25906;43.536;26.068;2023-05-21T15:30:07;98531.94;;;23.48
40199;BMP280;25906;43.536;26.068;2023-05-21T15:32:53;98525.81;;;23.47
40199;BMP280;25906;43.536;26.068;2023-05-21T15:35:38;98531.16;;;23.34
40199;BMP280;25906;43.536;26.068;2023-05-21T15:38:24;98533.03;;;23.26
40199;BMP280;25906;43.536;26.068;2023-05-21T15:41:10;98528.06;;;23.30
40199;BMP280;25906;43.536;26.068;2023-05-21T15:43:55;98529.13;;;23.08
40199;BMP280;25906;43.536;26.068;2023-05-21T15:46:40;98530.53;;;23.15
40199;BMP280;25906;43.536;26.068;2023-05-21T15:49:26;98524.91;;;23.13
40199;BMP280;25906;43.536;26.068;2023-05-21T15:52:11;98532.28;;;23.12
40199;BMP280;25906;43.536;26.068;2023-05-21T15:54:57;98545.09;;;22.93
40199;BMP280;25906;43.536;26.068;2023-05-21T15:57:42;98534.72;;;22.97